»·PEaware :: N47332 KOLM-KSEA

N47332 :: KOLM-KSEA

FLIGHT INFORMATION

Flight Status: Arrived
Operator: Privately registered:
United States
More flights under this callsign
Pilot: Sergei F. (8485)
Aircraft: BOEING 737-300
(B733)
More flights by this aircraft type
Origin: KOLM Olympia
United States
Destination: KSEA Seattle-Tacoma Intl
United States
More flights between these airports :: More routes between these airports
Route: SEA
File this flight plan on PilotEdge
Remarks:
Altitude:
(Current/Filed)
5,000ft
Speed:
(Current/Filed)
120kts
Departed: 16-Dec-17 08:58 PM
Arrived: 16-Dec-17 09:29 PM
Distance/Time
Traveled:
37nm/0:31
Distance/Time
To Go:
Arrived

Flight Plot

Page will automatically refresh every two minutes.

Flight plan parsing failed; only flown route is shown


Map Options




Map Legend


Flown Route
Filed Route
Departure Airport
Arrival Airport
Navaid (VOR, NDB)
Fix

Horizontal Profiles

Position Reports

Time Latitude Longitude Heading Altitude Ground
Speed
16-Dec-17 20:46 46.975390 -122.909301 35 198ft 0kts
16-Dec-17 20:47 46.975390 -122.909301 35 198ft 0kts
16-Dec-17 20:48 46.975390 -122.909301 35 198ft 0kts
16-Dec-17 20:49 46.975390 -122.909301 35 198ft 0kts
16-Dec-17 20:50 46.975390 -122.909301 35 198ft 0kts
16-Dec-17 20:51 46.975414 -122.909171 93 197ft 2kts
16-Dec-17 20:52 46.975407 -122.908899 90 197ft 0kts
16-Dec-17 20:53 46.975913 -122.908013 0 196ft 5kts
16-Dec-17 20:54 46.976513 -122.905543 100 193ft 10kts
16-Dec-17 20:55 46.976285 -122.903847 101 194ft 0kts
16-Dec-17 20:56 46.976284 -122.903847 101 194ft 0kts
16-Dec-17 20:57 46.976284 -122.903847 101 194ft 0kts
16-Dec-17 20:58 46.976284 -122.903847 101 194ft 0kts
16-Dec-17 20:59 46.976284 -122.903847 101 194ft 0kts
16-Dec-17 21:00 46.976284 -122.903847 101 194ft 0kts
16-Dec-17 21:01 46.976284 -122.903847 101 194ft 0kts
16-Dec-17 21:02 46.976284 -122.903847 101 194ft 0kts
16-Dec-17 21:03 46.976169 -122.903155 112 194ft 6kts
16-Dec-17 21:04 46.967659 -122.904147 161 458ft 67kts
16-Dec-17 21:05 46.968145 -122.874253 74 1303ft 88kts
16-Dec-17 21:06 46.977559 -122.841265 35 2185ft 89kts
16-Dec-17 21:07 46.997272 -122.820500 35 3073ft 85kts
16-Dec-17 21:08 47.015776 -122.800932 36 3906ft 83kts
16-Dec-17 21:09 47.036315 -122.779116 36 4537ft 97kts
16-Dec-17 21:10 47.058000 -122.755172 35 5028ft 107kts
16-Dec-17 21:11 47.085146 -122.724870 35 5026ft 131kts
16-Dec-17 21:12 47.112462 -122.694797 35 5017ft 116kts
16-Dec-17 21:13 47.137607 -122.667096 35 5021ft 115kts
16-Dec-17 21:14 47.164019 -122.637966 35 5019ft 121kts
16-Dec-17 21:15 47.190825 -122.608212 35 5018ft 120kts
16-Dec-17 21:16 47.217119 -122.578796 35 5017ft 117kts
16-Dec-17 21:17 47.242671 -122.550279 35 5016ft 112kts
16-Dec-17 21:18 47.267121 -122.523118 35 5006ft 108kts
16-Dec-17 21:19 47.292436 -122.504929 12 5003ft 98kts
16-Dec-17 21:20 47.318611 -122.493268 12 5006ft 100kts
16-Dec-17 21:21 47.348934 -122.480441 12 5008ft 127kts
16-Dec-17 21:22 47.384144 -122.466738 13 4532ft 134kts
16-Dec-17 21:23 47.419964 -122.453611 12 4035ft 132kts
16-Dec-17 21:24 47.455468 -122.441299 12 3537ft 130kts
16-Dec-17 21:25 47.490484 -122.429728 12 3039ft 128kts
16-Dec-17 21:26 47.525134 -122.418681 12 2537ft 126kts
16-Dec-17 21:27 47.559354 -122.407976 12 2044ft 126kts
16-Dec-17 21:28 47.572818 -122.372852 95 2011ft 114kts
16-Dec-17 21:29 47.568740 -122.327104 130 2009ft 112kts
16-Dec-17 21:30 47.539366 -122.317277 179 1883ft 110kts
16-Dec-17 21:31 47.509536 -122.317648 177 1280ft 104kts
16-Dec-17 21:32 47.483944 -122.317915 176 784ft 79kts
16-Dec-17 21:34 47.467204 -122.317911 175 450ft 62kts
16-Dec-17 21:35 47.452176 -122.317925 178 357ft 35kts
16-Dec-17 21:36 47.442687 -122.318051 179 343ft 32kts
16-Dec-17 21:37 47.440666 -122.315908 100 352ft 7kts
16-Dec-17 21:38 47.439044 -122.315288 235 349ft 8kts
16-Dec-17 21:39 47.438706 -122.315406 25 347ft 0kts
16-Dec-17 21:40 47.438823 -122.315388 359 348ft 0kts
16-Dec-17 21:41 47.438823 -122.315388 359 348ft 0kts

Navigation Log

Ident Type
Flight plan parsing failed, navigation log unavailable